createdAt,value
2023-02-24T00:00:24.612Z,7.675
2023-02-24T00:01:26.233Z,7.720
2023-02-24T00:02:24.173Z,7.670
2023-02-24T00:03:24.398Z,7.656
2023-02-24T00:04:24.145Z,7.659
2023-02-24T00:05:23.782Z,7.638
2023-02-24T00:06:24.415Z,7.648
2023-02-24T00:07:24.181Z,7.648
2023-02-24T00:08:23.818Z,7.635
2023-02-24T00:09:24.551Z,7.627
2023-02-24T00:10:24.296Z,7.622
2023-02-24T00:11:23.988Z,7.632
2023-02-24T00:12:23.724Z,7.584
2023-02-24T00:13:24.500Z,7.568
2023-02-24T00:14:24.212Z,7.571
2023-02-24T00:15:23.941Z,7.560
2023-02-24T00:16:23.761Z,7.552
2023-02-24T00:17:24.374Z,7.560
2023-02-24T00:18:24.135Z,7.560
2023-02-24T00:19:23.833Z,7.597
2023-02-24T00:20:24.513Z,7.600
2023-02-24T00:21:24.276Z,7.592
2023-02-24T00:22:23.963Z,7.536
2023-02-24T00:23:24.641Z,7.533
2023-02-24T00:24:25.961Z,7.493
2023-02-24T00:25:24.645Z,7.515
2023-02-24T00:26:24.336Z,7.504
2023-02-24T00:27:24.011Z,7.515
2023-02-24T00:28:24.608Z,7.539
2023-02-24T00:29:24.305Z,7.547
2023-02-24T00:30:23.975Z,7.552
2023-02-24T00:31:24.957Z,7.541
2023-02-24T00:32:24.034Z,7.483
2023-02-24T00:33:24.323Z,7.461
2023-02-24T00:34:24.932Z,7.459
2023-02-24T00:35:24.577Z,7.395
2023-02-24T00:36:24.208Z,7.392
2023-02-24T00:37:23.829Z,7.357
2023-02-24T00:38:24.516Z,7.346
2023-02-24T00:39:24.164Z,7.357
2023-02-24T00:40:23.745Z,7.333
2023-02-24T00:41:24.380Z,7.346
2023-02-24T00:42:24.053Z,7.333
2023-02-24T00:43:23.738Z,7.314
2023-02-24T00:44:24.434Z,7.306
2023-02-24T00:45:24.134Z,7.344
2023-02-24T00:46:23.930Z,7.296
2023-02-24T00:47:24.097Z,7.419
2023-02-24T00:48:23.821Z,7.421
2023-02-24T00:49:24.578Z,7.461
2023-02-24T00:50:23.925Z,7.445
2023-02-24T00:51:24.608Z,7.461
2023-02-24T00:52:24.276Z,7.403
2023-02-24T00:53:23.896Z,7.397
2023-02-24T00:54:24.585Z,7.421
2023-02-24T00:55:24.517Z,7.496
2023-02-24T00:56:24.148Z,7.541
2023-02-24T00:57:23.823Z,7.528
2023-02-24T00:58:24.460Z,7.448
2023-02-24T00:59:24.160Z,7.517
2023-02-24T01:00:23.900Z,7.477
2023-02-24T01:01:24.747Z,7.480
2023-02-24T01:02:25.016Z,7.472
2023-02-24T01:03:23.956Z,7.459
2023-02-24T01:04:24.760Z,7.429
2023-02-24T01:05:23.644Z,7.429
2023-02-24T01:06:24.453Z,7.429
2023-02-24T01:07:24.120Z,7.419
2023-02-24T01:08:23.724Z,7.475
2023-02-24T01:09:24.360Z,7.456
2023-02-24T01:10:24.133Z,7.467
2023-02-24T01:11:23.835Z,7.419
2023-02-24T01:12:23.772Z,7.413
2023-02-24T01:13:24.457Z,7.354
2023-02-24T01:14:24.199Z,7.373
2023-02-24T01:15:23.881Z,7.405
2023-02-24T01:16:24.561Z,7.392
2023-02-24T01:17:24.353Z,7.395
2023-02-24T01:18:24.024Z,7.416
2023-02-24T01:19:23.738Z,7.459
2023-02-24T01:20:24.477Z,7.451
2023-02-24T01:21:24.062Z,7.496
2023-02-24T01:22:23.736Z,7.493
2023-02-24T01:23:24.475Z,7.523
2023-02-24T01:24:24.185Z,7.515
2023-02-24T01:25:24.060Z,7.472
2023-02-24T01:26:23.672Z,7.504
2023-02-24T01:27:24.343Z,7.525
2023-02-24T01:28:23.963Z,7.475
2023-02-24T01:29:24.608Z,7.488
2023-02-24T01:30:23.890Z,7.509
2023-02-24T01:31:24.936Z,7.483
2023-02-24T01:32:25.116Z,7.483
2023-02-24T01:33:24.682Z,7.483
2023-02-24T01:34:24.528Z,7.448
2023-02-24T01:35:24.271Z,7.475
2023-02-24T01:36:23.945Z,7.381
2023-02-24T01:37:24.595Z,7.400
2023-02-24T01:38:24.277Z,7.346
2023-02-24T01:39:23.977Z,7.346
2023-02-24T01:40:24.637Z,7.328
2023-02-24T01:41:24.317Z,7.330
2023-02-24T01:42:24.118Z,7.306
2023-02-24T01:43:23.873Z,7.309
2023-02-24T01:44:24.521Z,7.290
2023-02-24T01:45:24.237Z,7.290
2023-02-24T01:46:24.029Z,7.306
2023-02-24T01:47:23.905Z,7.306
2023-02-24T01:48:24.629Z,7.314
2023-02-24T01:49:24.441Z,7.306
2023-02-24T01:50:24.465Z,7.290
2023-02-24T01:51:24.390Z,7.296
2023-02-24T01:52:24.163Z,7.301
2023-02-24T01:53:23.820Z,7.317
2023-02-24T01:54:24.463Z,7.336
2023-02-24T01:55:24.152Z,7.346
2023-02-24T01:56:23.779Z,7.306
2023-02-24T01:57:24.484Z,7.293
2023-02-24T01:58:24.126Z,7.325
2023-02-24T01:59:23.964Z,7.293
2023-02-24T02:00:23.859Z,7.290
2023-02-24T02:01:24.607Z,7.293
2023-02-24T02:02:24.075Z,7.317
2023-02-24T02:03:24.296Z,7.309
2023-02-24T02:04:23.936Z,7.317
2023-02-24T02:05:23.780Z,7.333
2023-02-24T02:06:24.444Z,7.280
2023-02-24T02:07:24.206Z,7.280
2023-02-24T02:08:23.909Z,7.288
2023-02-24T02:09:24.568Z,7.274
2023-02-24T02:10:24.152Z,7.280
2023-02-24T02:11:23.992Z,7.248
2023-02-24T02:12:23.695Z,7.264
2023-02-24T02:13:24.434Z,7.205
2023-02-24T02:14:24.421Z,7.224
2023-02-24T02:15:24.057Z,7.229
2023-02-24T02:16:23.840Z,7.253
2023-02-24T02:17:24.647Z,7.229
2023-02-24T02:18:24.395Z,7.208
2023-02-24T02:19:24.042Z,7.245
2023-02-24T02:20:23.787Z,7.216
2023-02-24T02:21:24.456Z,7.218
2023-02-24T02:22:24.163Z,7.210
2023-02-24T02:23:23.916Z,7.197
2023-02-24T02:24:24.540Z,7.173
2023-02-24T02:25:24.261Z,7.200
2023-02-24T02:26:24.035Z,7.168
2023-02-24T02:27:24.640Z,7.178
2023-02-24T02:28:24.300Z,7.160
2023-02-24T02:29:23.948Z,7.152
2023-02-24T02:30:24.609Z,7.173
2023-02-24T02:31:24.953Z,7.173
2023-02-24T02:32:23.876Z,7.173
2023-02-24T02:33:24.105Z,7.141
2023-02-24T02:34:23.772Z,7.122
2023-02-24T02:35:24.497Z,7.133
2023-02-24T02:36:24.212Z,7.103
2023-02-24T02:37:24.153Z,7.133
2023-02-24T02:38:23.812Z,7.144
2023-02-24T02:39:24.429Z,7.127
2023-02-24T02:40:24.150Z,7.109
2023-02-24T02:41:24.000Z,7.127
2023-02-24T02:42:24.665Z,7.061
2023-02-24T02:43:24.491Z,7.031
2023-02-24T02:44:24.257Z,7.061
2023-02-24T02:45:24.859Z,7.071
2023-02-24T02:46:23.966Z,7.045
2023-02-24T02:47:24.597Z,7.061
2023-02-24T02:48:24.314Z,7.026
2023-02-24T02:49:23.982Z,7.029
2023-02-24T02:50:23.812Z,6.975
2023-02-24T02:51:24.483Z,6.975
2023-02-24T02:52:24.108Z,6.959
2023-02-24T02:53:23.756Z,6.981
2023-02-24T02:54:24.400Z,6.967
2023-02-24T02:55:24.896Z,6.930
2023-02-24T02:56:24.573Z,6.922
2023-02-24T02:57:24.236Z,6.930
2023-02-24T02:58:23.979Z,6.919
2023-02-24T02:59:24.641Z,6.855
2023-02-24T03:00:24.376Z,6.890
2023-02-24T03:01:24.439Z,6.951
2023-02-24T03:02:24.163Z,6.895
2023-02-24T03:03:23.831Z,6.898
2023-02-24T03:05:24.561Z,6.938
2023-02-24T03:06:24.302Z,6.927
2023-02-24T03:07:24.214Z,6.927
2023-02-24T03:08:23.838Z,6.941
2023-02-24T03:09:24.626Z,6.949
2023-02-24T03:10:24.496Z,6.938
2023-02-24T03:11:24.185Z,6.927
2023-02-24T03:12:23.921Z,6.922
2023-02-24T03:13:23.725Z,6.922
2023-02-24T03:14:24.401Z,6.909
2023-02-24T03:15:24.175Z,6.903
2023-02-24T03:16:23.863Z,6.884
2023-02-24T03:17:23.852Z,6.844
2023-02-24T03:18:24.572Z,6.887
2023-02-24T03:19:24.245Z,6.914
2023-02-24T03:20:24.003Z,6.901
2023-02-24T03:21:23.779Z,6.887
2023-02-24T03:22:24.705Z,6.884
2023-02-24T03:23:24.460Z,6.882
2023-02-24T03:24:24.397Z,6.901
2023-02-24T03:25:24.073Z,6.901
2023-02-24T03:26:23.863Z,6.911
2023-02-24T03:27:24.533Z,6.863
2023-02-24T03:28:24.161Z,6.839
2023-02-24T03:29:24.252Z,6.826
2023-02-24T03:30:24.204Z,6.884
2023-02-24T03:31:24.436Z,6.890
2023-02-24T03:32:24.755Z,6.858
2023-02-24T03:33:24.023Z,6.810
2023-02-24T03:34:24.652Z,6.844
2023-02-24T03:35:24.419Z,6.807
2023-02-24T03:36:24.077Z,6.831
2023-02-24T03:37:23.766Z,6.855
2023-02-24T03:38:24.555Z,6.860
2023-02-24T03:39:24.323Z,6.812
2023-02-24T03:40:23.982Z,6.826
2023-02-24T03:41:24.657Z,6.796
2023-02-24T03:42:24.379Z,6.799
2023-02-24T03:43:24.082Z,6.802
2023-02-24T03:44:23.861Z,6.794
2023-02-24T03:45:24.682Z,6.810
2023-02-24T03:46:24.404Z,6.762
2023-02-24T03:47:24.085Z,6.756
2023-02-24T03:48:23.715Z,6.738
2023-02-24T03:49:24.424Z,6.746
2023-02-24T03:50:24.180Z,6.724
2023-02-24T03:51:24.018Z,6.698
2023-02-24T03:52:24.588Z,6.644
2023-02-24T03:53:24.270Z,6.633
2023-02-24T03:54:24.020Z,6.636
2023-02-24T03:55:24.637Z,6.599
2023-02-24T03:56:24.408Z,6.585
2023-02-24T03:57:24.164Z,6.599
2023-02-24T03:58:23.924Z,6.599
2023-02-24T03:59:24.680Z,6.561
2023-02-24T04:00:24.421Z,6.559
2023-02-24T04:01:24.213Z,6.513
2023-02-24T04:02:24.138Z,6.484
2023-02-24T04:03:24.052Z,6.492
2023-02-24T04:04:24.008Z,6.473
2023-02-24T04:05:23.869Z,6.511
2023-02-24T04:06:24.632Z,6.500
2023-02-24T04:07:24.449Z,6.559
2023-02-24T04:08:24.312Z,6.652
2023-02-24T04:09:24.069Z,6.569
2023-02-24T04:10:23.694Z,6.559
2023-02-24T04:11:24.653Z,6.633
2023-02-24T04:12:24.331Z,6.692
2023-02-24T04:13:24.365Z,6.708
2023-02-24T04:14:24.124Z,6.727
2023-02-24T04:15:23.804Z,6.690
2023-02-24T04:16:28.470Z,6.682
2023-02-24T04:17:27.456Z,6.674
2023-02-24T04:18:27.708Z,6.652
2023-02-24T04:19:24.303Z,6.722
2023-02-24T04:20:24.015Z,6.687
2023-02-24T04:21:23.687Z,6.732
2023-02-24T04:22:24.364Z,6.751
2023-02-24T04:23:24.120Z,6.738
2023-02-24T04:24:24.014Z,6.724
2023-02-24T04:25:24.888Z,6.724
2023-02-24T04:26:23.752Z,6.692
2023-02-24T04:27:24.373Z,6.671
2023-02-24T04:28:24.108Z,6.652
2023-02-24T04:29:23.805Z,6.676
2023-02-24T04:30:24.461Z,6.650
2023-02-24T04:31:24.977Z,6.671
2023-02-24T04:32:24.850Z,6.655
2023-02-24T04:33:23.944Z,6.617
2023-02-24T04:34:24.641Z,6.524
2023-02-24T04:35:24.402Z,6.524
2023-02-24T04:36:24.145Z,6.521
2023-02-24T04:37:23.810Z,6.476
2023-02-24T04:38:24.482Z,6.465
2023-02-24T04:39:24.172Z,6.487
2023-02-24T04:40:23.869Z,6.516
2023-02-24T04:41:26.102Z,6.529
2023-02-24T04:42:23.762Z,6.532
2023-02-24T04:43:24.590Z,6.540
2023-02-24T04:44:24.407Z,6.511
2023-02-24T04:45:24.081Z,6.484
2023-02-24T04:46:25.459Z,6.511
2023-02-24T04:47:24.359Z,6.521
2023-02-24T04:48:24.008Z,6.529
2023-02-24T04:49:23.745Z,6.511
2023-02-24T04:50:24.399Z,6.511
2023-02-24T04:51:24.147Z,6.500
2023-02-24T04:52:23.749Z,6.473
2023-02-24T04:53:24.476Z,6.463
2023-02-24T04:54:24.161Z,6.487
2023-02-24T04:55:23.955Z,6.471
2023-02-24T04:56:23.727Z,6.447
2023-02-24T04:57:24.400Z,6.396
2023-02-24T04:58:24.034Z,6.310
2023-02-24T04:59:23.693Z,6.348
2023-02-24T05:00:24.408Z,6.308
2023-02-24T05:01:24.181Z,6.236
2023-02-24T05:02:23.921Z,6.206
2023-02-24T05:03:24.639Z,6.193
2023-02-24T05:04:23.994Z,6.196
2023-02-24T05:05:23.885Z,6.238
2023-02-24T05:06:23.707Z,6.249
2023-02-24T05:07:24.478Z,6.169
2023-02-24T05:08:24.157Z,6.182
2023-02-24T05:09:23.853Z,6.180
2023-02-24T05:10:24.532Z,6.158
2023-02-24T05:11:24.276Z,6.201
2023-02-24T05:12:24.042Z,6.115
2023-02-24T05:13:23.749Z,6.142
2023-02-24T05:14:24.461Z,6.209
2023-02-24T05:15:24.126Z,6.182
2023-02-24T05:16:23.934Z,6.180
2023-02-24T05:17:23.880Z,6.172
2023-02-24T05:18:24.498Z,6.118
2023-02-24T05:19:24.267Z,6.161
2023-02-24T05:20:23.924Z,6.147
2023-02-24T05:21:24.560Z,6.172
2023-02-24T05:22:24.679Z,6.142
2023-02-24T05:23:24.352Z,6.257
2023-02-24T05:24:24.657Z,6.206
2023-02-24T05:25:24.420Z,6.206
2023-02-24T05:26:24.152Z,6.169
2023-02-24T05:27:23.825Z,6.222
2023-02-24T05:28:24.417Z,6.252
2023-02-24T05:29:24.308Z,6.206
2023-02-24T05:30:24.167Z,6.265
2023-02-24T05:31:24.422Z,6.249
2023-02-24T05:32:24.567Z,6.260
2023-02-24T05:33:23.718Z,6.244
2023-02-24T05:34:24.324Z,6.257
2023-02-24T05:35:24.057Z,6.268
2023-02-24T05:36:24.670Z,6.206
2023-02-24T05:37:24.500Z,6.198
2023-02-24T05:38:24.234Z,6.198
2023-02-24T05:39:23.889Z,6.209
2023-02-24T05:40:24.684Z,6.206
2023-02-24T05:41:24.380Z,6.193
2023-02-24T05:42:24.061Z,6.206
2023-02-24T05:43:23.980Z,6.182
2023-02-24T05:44:23.743Z,6.190
2023-02-24T05:45:24.536Z,6.217
2023-02-24T05:46:24.294Z,6.254
2023-02-24T05:47:24.644Z,6.254
2023-02-24T05:48:24.328Z,6.257
2023-02-24T05:49:24.336Z,6.238
2023-02-24T05:50:24.173Z,6.217
2023-02-24T05:51:23.967Z,6.276
2023-02-24T05:52:24.569Z,6.185
2023-02-24T05:53:24.192Z,6.238
2023-02-24T05:54:23.872Z,6.236
2023-02-24T05:55:24.631Z,6.204
2023-02-24T05:56:24.321Z,6.217
2023-02-24T05:57:24.088Z,6.220
2023-02-24T05:58:23.741Z,6.230
2023-02-24T05:59:24.340Z,6.220
2023-02-24T06:00:24.013Z,6.174
2023-02-24T06:01:23.877Z,6.177
2023-02-24T06:02:23.871Z,6.196
2023-02-24T06:03:23.748Z,6.193
2023-02-24T06:04:24.557Z,6.228
2023-02-24T06:05:24.310Z,6.228
2023-02-24T06:06:24.014Z,6.180
2023-02-24T06:07:24.824Z,6.180
2023-02-24T06:08:23.669Z,6.182
2023-02-24T06:09:24.292Z,6.206
2023-02-24T06:10:23.990Z,6.185
2023-02-24T06:11:24.878Z,6.174
2023-02-24T06:12:24.168Z,6.201
2023-02-24T06:13:23.839Z,6.185
2023-02-24T06:14:24.508Z,6.129
2023-02-24T06:15:24.189Z,6.188
2023-02-24T06:16:23.931Z,6.169
2023-02-24T06:17:24.105Z,6.172
2023-02-24T06:18:23.744Z,6.188
2023-02-24T06:19:24.365Z,6.172
2023-02-24T06:20:23.996Z,6.169
2023-02-24T06:21:23.801Z,6.220
2023-02-24T06:22:24.606Z,6.201
2023-02-24T06:23:24.497Z,6.193
2023-02-24T06:24:24.153Z,6.190
2023-02-24T06:25:23.768Z,6.217
2023-02-24T06:26:24.497Z,6.185
2023-02-24T06:27:24.245Z,6.206
2023-02-24T06:28:23.849Z,6.209
2023-02-24T06:29:24.500Z,6.206
2023-02-24T06:30:24.180Z,6.260
2023-02-24T06:31:24.363Z,6.233
2023-02-24T06:32:24.846Z,6.228
2023-02-24T06:33:24.572Z,6.244
2023-02-24T06:34:24.201Z,6.241
2023-02-24T06:35:23.883Z,6.262
2023-02-24T06:36:24.719Z,6.276
2023-02-24T06:37:24.645Z,6.305
2023-02-24T06:38:24.528Z,6.353
2023-02-24T06:39:24.124Z,6.300
2023-02-24T06:40:23.809Z,6.345
2023-02-24T06:41:24.420Z,6.337
2023-02-24T06:42:24.115Z,6.350
2023-02-24T06:43:23.746Z,6.369
2023-02-24T06:44:24.556Z,6.388
2023-02-24T06:45:25.577Z,6.382
2023-02-24T06:46:24.527Z,6.372
2023-02-24T06:47:24.346Z,6.415
2023-02-24T06:48:24.144Z,6.401
2023-02-24T06:49:23.764Z,6.382
2023-02-24T06:50:24.449Z,6.388
2023-02-24T06:51:24.664Z,6.366
2023-02-24T06:52:30.853Z,6.409
2023-02-24T06:53:24.584Z,6.356
2023-02-24T06:54:24.293Z,6.396
2023-02-24T06:55:24.025Z,6.396
2023-02-24T06:56:23.772Z,6.361
2023-02-24T06:57:24.508Z,6.385
2023-02-24T06:58:24.090Z,6.460
2023-02-24T06:59:23.740Z,6.476
2023-02-24T07:00:24.645Z,6.484
2023-02-24T07:01:24.661Z,6.476
2023-02-24T07:02:23.753Z,6.441
2023-02-24T07:03:24.457Z,6.444
2023-02-24T07:04:25.742Z,6.457
2023-02-24T07:05:24.296Z,6.452
2023-02-24T07:06:24.004Z,6.473
2023-02-24T07:07:23.709Z,6.495
2023-02-24T07:08:24.432Z,6.524
2023-02-24T07:09:24.169Z,6.532
2023-02-24T07:10:23.837Z,6.527
2023-02-24T07:11:24.518Z,6.447
2023-02-24T07:12:23.940Z,6.457
2023-02-24T07:13:24.585Z,6.452
2023-02-24T07:14:24.332Z,6.476
2023-02-24T07:15:24.248Z,6.465
2023-02-24T07:16:24.049Z,6.420
2023-02-24T07:17:23.829Z,6.487
2023-02-24T07:18:24.657Z,6.487
2023-02-24T07:19:24.384Z,6.492
2023-02-24T07:20:24.196Z,6.463
2023-02-24T07:21:23.953Z,6.476
2023-02-24T07:22:24.721Z,6.447
2023-02-24T07:23:24.481Z,6.492
2023-02-24T07:24:24.154Z,6.521
2023-02-24T07:25:23.721Z,6.489
2023-02-24T07:26:24.496Z,6.527
2023-02-24T07:27:24.258Z,6.511
2023-02-24T07:28:23.973Z,6.551
2023-02-24T07:29:23.753Z,6.596
2023-02-24T07:30:24.602Z,6.585
2023-02-24T07:31:24.485Z,6.591
2023-02-24T07:32:24.591Z,6.569
2023-02-24T07:33:24.486Z,6.548
2023-02-24T07:34:24.140Z,6.609
2023-02-24T07:35:23.756Z,6.583
2023-02-24T07:36:24.403Z,6.596
2023-02-24T07:37:24.092Z,6.609
2023-02-24T07:38:23.795Z,6.599
2023-02-24T07:39:24.475Z,6.604
2023-02-24T07:40:24.209Z,6.596
2023-02-24T07:41:23.894Z,6.620
2023-02-24T07:42:23.644Z,6.559
2023-02-24T07:43:24.361Z,6.593
2023-02-24T07:44:24.059Z,6.607
2023-02-24T07:45:23.766Z,6.596
2023-02-24T07:46:24.735Z,6.633
2023-02-24T07:47:24.476Z,6.607
2023-02-24T07:48:24.206Z,6.663
2023-02-24T07:49:23.829Z,6.735
2023-02-24T07:50:24.004Z,6.724
2023-02-24T07:51:23.755Z,6.724
2023-02-24T07:52:24.447Z,6.676
2023-02-24T07:53:24.212Z,6.714
2023-02-24T07:54:23.803Z,6.764
2023-02-24T07:55:24.561Z,6.855
2023-02-24T07:56:24.253Z,6.884
2023-02-24T07:57:23.929Z,6.743
2023-02-24T07:58:29.400Z,6.738
2023-02-24T07:59:24.117Z,6.823
2023-02-24T08:00:23.820Z,6.863
2023-02-24T08:01:24.542Z,6.844
2023-02-24T08:02:24.286Z,6.836
2023-02-24T08:03:24.247Z,6.914
2023-02-24T08:04:23.933Z,6.911
2023-02-24T08:05:24.728Z,6.922
2023-02-24T08:06:24.612Z,6.938
2023-02-24T08:07:25.446Z,6.938
2023-02-24T08:08:24.175Z,7.010
2023-02-24T08:09:23.828Z,7.013
2023-02-24T08:10:24.654Z,7.093
2023-02-24T08:11:24.328Z,6.991
2023-02-24T08:12:24.001Z,7.103
2023-02-24T08:13:23.827Z,6.981
2023-02-24T08:14:24.488Z,7.005
2023-02-24T08:15:24.324Z,6.903
2023-02-24T08:16:24.256Z,6.949
2023-02-24T08:17:24.244Z,6.957
2023-02-24T08:18:23.964Z,6.978
2023-02-24T08:19:24.577Z,7.031
2023-02-24T08:20:24.844Z,7.039
2023-02-24T08:21:24.469Z,7.160
2023-02-24T08:22:24.381Z,7.184
2023-02-24T08:23:24.483Z,7.282
2023-02-24T08:24:25.275Z,7.317
2023-02-24T08:25:24.212Z,7.274
2023-02-24T08:26:24.274Z,7.216
2023-02-24T08:27:24.169Z,7.226
2023-02-24T08:28:28.801Z,7.298
2023-02-24T08:29:24.477Z,7.274
2023-02-24T08:30:24.251Z,7.146
2023-02-24T08:31:24.981Z,7.237
2023-02-24T08:32:23.956Z,7.173
2023-02-24T08:33:24.265Z,7.221
2023-02-24T08:34:24.012Z,7.165
2023-02-24T08:35:23.743Z,7.181
2023-02-24T08:36:23.860Z,7.226
2023-02-24T08:37:24.542Z,7.336
2023-02-24T08:38:26.337Z,7.325
2023-02-24T08:39:24.168Z,7.266
2023-02-24T08:40:23.856Z,7.184
2023-02-24T08:41:24.759Z,7.256
2023-02-24T08:42:24.561Z,7.301
2023-02-24T08:43:24.432Z,7.261
2023-02-24T08:44:24.265Z,7.189
2023-02-24T08:45:23.962Z,7.248
2023-02-24T08:46:23.743Z,7.200
2023-02-24T08:47:24.590Z,7.141
2023-02-24T08:48:24.321Z,7.186
2023-02-24T08:49:24.025Z,7.248
2023-02-24T08:50:23.776Z,7.226
2023-02-24T08:51:24.550Z,7.168
2023-02-24T08:52:24.269Z,7.237
2023-02-24T08:53:24.046Z,7.168
2023-02-24T08:54:24.054Z,7.202
2023-02-24T08:55:23.733Z,7.197
2023-02-24T08:56:24.747Z,7.216
2023-02-24T08:57:24.562Z,7.111
2023-02-24T08:58:24.224Z,7.224
2023-02-24T08:59:24.084Z,7.240
2023-02-24T09:00:23.759Z,7.237
2023-02-24T09:01:24.714Z,7.250
2023-02-24T09:02:24.164Z,7.194
2023-02-24T09:03:23.924Z,7.192
2023-02-24T09:04:24.506Z,7.269
2023-02-24T09:05:24.569Z,7.328
2023-02-24T09:06:24.340Z,7.301
2023-02-24T09:07:29.369Z,7.274
2023-02-24T09:08:24.033Z,7.293
2023-02-24T09:09:24.401Z,7.370
2023-02-24T09:10:24.264Z,7.403
2023-02-24T09:11:23.998Z,7.403
2023-02-24T09:12:23.644Z,7.387
2023-02-24T09:13:24.389Z,7.381
2023-02-24T09:14:29.169Z,7.373
2023-02-24T09:15:23.996Z,7.378
2023-02-24T09:16:23.834Z,7.477
2023-02-24T09:17:24.437Z,7.544
2023-02-24T09:18:24.201Z,7.646
2023-02-24T09:19:23.852Z,7.736
2023-02-24T09:20:24.567Z,7.691
2023-02-24T09:21:24.283Z,7.720
2023-02-24T09:22:28.917Z,7.680
2023-02-24T09:23:23.720Z,7.678
2023-02-24T09:24:24.301Z,7.659
2023-02-24T09:25:24.273Z,7.622
2023-02-24T09:26:24.442Z,7.675
2023-02-24T09:27:24.149Z,7.739
2023-02-24T09:28:23.802Z,7.699
2023-02-24T09:29:24.009Z,7.771
2023-02-24T09:30:24.689Z,7.808
2023-02-24T09:31:24.842Z,7.878
2023-02-24T09:32:24.050Z,7.862
2023-02-24T09:33:24.662Z,7.803
2023-02-24T09:34:24.328Z,7.811
2023-02-24T09:35:24.068Z,7.832
2023-02-24T09:36:23.823Z,7.856
2023-02-24T09:37:23.824Z,7.827
2023-02-24T09:38:24.553Z,8.110
2023-02-24T09:39:24.449Z,8.206
2023-02-24T09:40:24.242Z,8.214
2023-02-24T09:41:28.809Z,8.308
2023-02-24T09:42:23.935Z,8.108
2023-02-24T09:43:24.726Z,8.206
2023-02-24T09:44:24.513Z,8.022
2023-02-24T09:45:24.381Z,8.049
2023-02-24T09:46:24.834Z,8.150
2023-02-24T09:47:23.898Z,8.156
2023-02-24T09:48:24.575Z,8.083
2023-02-24T09:49:24.310Z,8.161
2023-02-24T09:50:40.586Z,8.108
2023-02-24T09:52:35.363Z,8.166
2023-02-24T09:54:38.891Z,8.337
2023-02-24T09:55:38.916Z,8.385
2023-02-24T09:56:39.768Z,8.415
2023-02-24T09:57:39.620Z,8.420
2023-02-24T09:58:44.408Z,8.503
2023-02-24T09:59:39.688Z,8.377
2023-02-24T10:00:39.525Z,8.383
2023-02-24T10:01:39.802Z,8.297
2023-02-24T10:02:38.831Z,8.444
2023-02-24T10:03:39.927Z,8.399
2023-02-24T10:04:40.356Z,8.407
2023-02-24T10:05:39.022Z,8.270
2023-02-24T10:06:38.828Z,8.471
2023-02-24T10:07:39.468Z,8.369
2023-02-24T10:08:39.241Z,8.588
2023-02-24T10:09:38.911Z,8.513
2023-02-24T10:10:39.636Z,8.500
2023-02-24T10:11:39.537Z,8.748
2023-02-24T10:12:39.225Z,8.802
2023-02-24T10:13:39.049Z,8.743
2023-02-24T10:14:43.635Z,8.567
2023-02-24T10:16:38.748Z,8.391
2023-02-24T10:17:40.560Z,8.329
2023-02-24T10:18:39.337Z,8.388
2023-02-24T10:19:39.314Z,8.535
2023-02-24T10:20:39.198Z,8.553
2023-02-24T10:21:39.625Z,8.463
2023-02-24T10:22:39.291Z,8.318
2023-02-24T10:23:38.981Z,8.417
2023-02-24T10:24:39.094Z,8.270
2023-02-24T10:25:39.181Z,8.188
2023-02-24T10:26:40.260Z,8.420
2023-02-24T10:28:48.458Z,8.556
2023-02-24T10:29:48.123Z,8.706
2023-02-24T10:30:48.782Z,8.732
2023-02-24T10:31:48.453Z,8.780
2023-02-24T10:32:48.115Z,8.735
2023-02-24T10:33:48.033Z,8.823
2023-02-24T10:34:47.816Z,9.063
2023-02-24T10:35:48.566Z,8.861
2023-02-24T10:36:48.199Z,8.722
2023-02-24T10:37:48.160Z,8.935
2023-02-24T10:38:47.824Z,8.863
2023-02-24T10:39:50.266Z,8.949
2023-02-24T10:40:48.321Z,8.978
2023-02-24T10:41:48.049Z,8.901
2023-02-24T10:42:47.908Z,9.210
2023-02-24T10:43:48.688Z,9.205
2023-02-24T10:44:51.120Z,9.144
2023-02-24T10:46:58.412Z,9.077
2023-02-24T10:47:53.389Z,8.909
2023-02-24T10:48:58.238Z,9.189
2023-02-24T10:49:53.237Z,9.031
2023-02-24T10:50:56.140Z,9.229
2023-02-24T10:51:53.154Z,9.133
2023-02-24T10:52:52.789Z,9.421
2023-02-24T10:53:53.524Z,9.622
2023-02-24T10:54:53.505Z,9.469
2023-02-24T10:55:53.493Z,9.667
2023-02-24T10:56:53.113Z,9.576
2023-02-24T10:57:58.840Z,10.132
2023-02-24T10:58:52.936Z,10.228
2023-02-24T10:59:53.635Z,10.311
2023-02-24T11:00:52.733Z,10.140
2023-02-24T11:01:53.735Z,10.110
2023-02-24T11:02:52.844Z,9.958
2023-02-24T11:03:53.673Z,9.600
2023-02-24T11:04:53.529Z,9.696
2023-02-24T11:05:54.178Z,9.795
2023-02-24T11:06:52.849Z,9.798
2023-02-24T11:07:53.546Z,10.019
2023-02-24T11:08:53.936Z,9.969
2023-02-24T11:09:54.068Z,9.881
2023-02-24T11:10:54.196Z,9.843
2023-02-24T11:11:53.343Z,10.425
2023-02-24T11:13:00.796Z,10.756
2023-02-24T11:14:52.861Z,10.797
2023-02-24T11:15:52.974Z,10.943
2023-02-24T11:16:53.030Z,11.034
2023-02-24T11:17:52.820Z,10.815
2023-02-24T11:18:53.197Z,11.141
2023-02-24T11:19:53.287Z,10.607
2023-02-24T11:20:58.232Z,10.423
2023-02-24T11:21:53.082Z,11.064
2023-02-24T11:22:52.767Z,10.858
2023-02-24T11:23:53.478Z,10.364
2023-02-24T11:24:53.094Z,10.364
2023-02-24T11:25:52.745Z,10.150
2023-02-24T11:26:53.637Z,9.774
2023-02-24T11:27:52.761Z,9.632
2023-02-24T11:28:52.738Z,9.667
2023-02-24T11:29:53.396Z,9.696
2023-02-24T11:30:53.341Z,9.603
2023-02-24T11:31:53.865Z,9.758
2023-02-24T11:32:53.724Z,9.432
2023-02-24T11:33:53.457Z,9.539
2023-02-24T11:34:53.230Z,9.328
2023-02-24T11:35:53.505Z,9.282
2023-02-24T11:36:53.533Z,9.186
2023-02-24T11:37:53.309Z,9.389
2023-02-24T11:38:53.523Z,9.389
2023-02-24T11:40:53.380Z,9.079
2023-02-24T11:41:52.849Z,9.114
2023-02-24T11:42:53.298Z,9.242
2023-02-24T11:43:52.926Z,9.213
2023-02-24T11:44:52.869Z,9.306
2023-02-24T11:45:53.455Z,9.456
2023-02-24T11:46:53.297Z,9.290
2023-02-24T11:47:52.974Z,9.533
2023-02-24T11:48:53.597Z,9.541
2023-02-24T11:49:53.326Z,9.608
2023-02-24T11:50:53.045Z,9.445
2023-02-24T11:51:52.728Z,9.496
2023-02-24T11:52:53.393Z,9.416
2023-02-24T11:53:53.093Z,9.459
2023-02-24T11:54:52.769Z,9.341
2023-02-24T11:55:53.529Z,9.344
2023-02-24T11:56:53.271Z,9.288
2023-02-24T11:57:53.050Z,9.202
2023-02-24T11:58:53.222Z,9.197
2023-02-24T11:59:52.930Z,9.224
2023-02-24T12:00:52.685Z,9.277
2023-02-24T12:01:53.342Z,9.504
2023-02-24T12:02:53.093Z,9.387
2023-02-24T12:03:53.312Z,9.405
2023-02-24T12:04:53.093Z,9.622
2023-02-24T12:05:53.006Z,9.675
2023-02-24T12:06:53.089Z,10.097
2023-02-24T12:07:52.814Z,10.372
2023-02-24T12:08:53.509Z,10.198
2023-02-24T12:09:54.935Z,10.335
2023-02-24T12:11:53.197Z,10.519
2023-02-24T12:12:52.703Z,10.335
2023-02-24T12:13:53.449Z,10.650
2023-02-24T12:14:53.166Z,10.805
2023-02-24T12:15:53.021Z,10.393
2023-02-24T12:16:52.984Z,10.156
2023-02-24T12:17:52.708Z,10.564
2023-02-24T12:18:53.516Z,10.805
2023-02-24T12:19:53.161Z,10.415
2023-02-24T12:20:52.836Z,10.084
2023-02-24T12:21:53.671Z,10.121
2023-02-24T12:22:53.455Z,9.974
2023-02-24T12:23:53.249Z,9.921
2023-02-24T12:24:52.903Z,9.715
2023-02-24T12:25:53.640Z,9.670
2023-02-24T12:26:53.349Z,9.600
2023-02-24T12:27:53.012Z,9.814
2023-02-24T12:28:52.704Z,9.763
2023-02-24T12:29:53.435Z,9.883
2023-02-24T12:30:56.379Z,9.715
2023-02-24T12:31:53.742Z,9.467
2023-02-24T12:32:54.016Z,9.405
2023-02-24T12:33:52.893Z,9.533
2023-02-24T12:34:53.561Z,9.795
2023-02-24T12:35:53.437Z,9.811
2023-02-24T12:36:53.939Z,9.675
2023-02-24T12:37:53.628Z,9.640
2023-02-24T12:38:53.261Z,9.646
2023-02-24T12:39:52.982Z,9.817
2023-02-24T12:40:52.735Z,9.688
2023-02-24T12:41:55.142Z,9.843
2023-02-24T12:42:52.897Z,9.787
2023-02-24T12:43:53.589Z,9.328
2023-02-24T12:44:53.272Z,9.352
2023-02-24T12:45:53.095Z,9.493
2023-02-24T12:46:53.093Z,9.408
2023-02-24T12:47:52.916Z,9.541
2023-02-24T12:48:53.252Z,9.379
2023-02-24T12:49:52.941Z,9.328
2023-02-24T12:50:52.846Z,9.288
2023-02-24T12:51:53.492Z,9.280
2023-02-24T12:52:53.132Z,9.368
2023-02-24T12:53:52.812Z,9.266
2023-02-24T12:54:53.331Z,9.325
2023-02-24T12:55:53.159Z,9.453
2023-02-24T12:56:52.879Z,9.531
2023-02-24T12:57:52.663Z,9.555
2023-02-24T12:58:53.471Z,9.427
2023-02-24T12:59:53.187Z,9.608
2023-02-24T13:00:53.030Z,9.726